West Davenport, New York
Current Conditions -  °F | °C
As of 1:55 AM on Sunday 21 Dec 2014 (Local Time) from KNY0 Reporting Station
Overcast Overcast  
Wind Chill: 23°   Ceiling: 2100
Heat Index: 23°   Visibility: 10mi
Dew Point: 19°   Wind: 3mph
Humidity: 84%   Direction: 230°SW
Pressure: 30.28"   Gusts: NA
Location:  42.45°N, 74.96°W
Report Text: KNY0 210655Z AUTO 23003KT 10SM OVC021 M05/M07 A3028 RMK AO2 T10481072
Loading
Personal Weather Stations






























Interactive Weather Map New forecast layout! Learn more

10-Day Weather Forecast

Advertisements
Track Severe Weather on mobile